sensor_id;sensor_type;location;lat;lon;timestamp;P1;durP1;ratioP1;P2;durP2;ratioP2
49318;SDS011;35818;44.498;0.166;2022-07-01T00:00:18;8.32;;;1.90;;
49318;SDS011;35818;44.498;0.166;2022-07-01T00:03:10;8.93;;;2.00;;
49318;SDS011;35818;44.498;0.166;2022-07-01T00:05:40;6.13;;;2.90;;
49318;SDS011;35818;44.498;0.166;2022-07-01T00:08:08;6.90;;;2.30;;
49318;SDS011;35818;44.498;0.166;2022-07-01T00:10:39;5.93;;;2.22;;
49318;SDS011;35818;44.498;0.166;2022-07-01T00:13:09;5.63;;;2.60;;
49318;SDS011;35818;44.498;0.166;2022-07-01T00:16:03;9.70;;;2.30;;
49318;SDS011;35818;44.498;0.166;2022-07-01T00:18:42;6.18;;;1.90;;
49318;SDS011;35818;44.498;0.166;2022-07-01T00:21:17;8.18;;;2.47;;
49318;SDS011;35818;44.498;0.166;2022-07-01T00:23:45;6.82;;;2.72;;
49318;SDS011;35818;44.498;0.166;2022-07-01T00:26:12;6.47;;;2.67;;
49318;SDS011;35818;44.498;0.166;2022-07-01T00:28:39;7.85;;;3.15;;
49318;SDS011;35818;44.498;0.166;2022-07-01T00:31:06;5.43;;;2.65;;
49318;SDS011;35818;44.498;0.166;2022-07-01T00:33:35;7.85;;;2.88;;
49318;SDS011;35818;44.498;0.166;2022-07-01T00:36:28;6.93;;;2.30;;
49318;SDS011;35818;44.498;0.166;2022-07-01T00:38:57;8.95;;;2.55;;
49318;SDS011;35818;44.498;0.166;2022-07-01T00:41:26;7.75;;;3.22;;
49318;SDS011;35818;44.498;0.166;2022-07-01T00:44:01;5.93;;;2.50;;
49318;SDS011;35818;44.498;0.166;2022-07-01T00:46:53;9.38;;;3.72;;
49318;SDS011;35818;44.498;0.166;2022-07-01T00:49:23;12.98;;;3.55;;
49318;SDS011;35818;44.498;0.166;2022-07-01T00:52:13;7.40;;;3.78;;
49318;SDS011;35818;44.498;0.166;2022-07-01T00:55:04;10.55;;;4.22;;
49318;SDS011;35818;44.498;0.166;2022-07-01T00:57:35;12.50;;;4.45;;
49318;SDS011;35818;44.498;0.166;2022-07-01T01:00:04;9.07;;;3.40;;
49318;SDS011;35818;44.498;0.166;2022-07-01T01:02:39;9.10;;;3.30;;
49318;SDS011;35818;44.498;0.166;2022-07-01T01:05:09;10.50;;;3.90;;
49318;SDS011;35818;44.498;0.166;2022-07-01T01:07:37;6.70;;;2.72;;
49318;SDS011;35818;44.498;0.166;2022-07-01T01:10:04;6.45;;;3.40;;
49318;SDS011;35818;44.498;0.166;2022-07-01T01:12:34;8.05;;;2.60;;
49318;SDS011;35818;44.498;0.166;2022-07-01T01:15:01;6.68;;;2.58;;
49318;SDS011;35818;44.498;0.166;2022-07-01T01:17:28;5.32;;;2.47;;
49318;SDS011;35818;44.498;0.166;2022-07-01T01:19:54;6.53;;;2.63;;
49318;SDS011;35818;44.498;0.166;2022-07-01T01:22:20;5.00;;;2.25;;
49318;SDS011;35818;44.498;0.166;2022-07-01T01:24:46;9.55;;;3.13;;
49318;SDS011;35818;44.498;0.166;2022-07-01T01:27:14;8.30;;;3.28;;
49318;SDS011;35818;44.498;0.166;2022-07-01T01:29:41;6.57;;;2.75;;
49318;SDS011;35818;44.498;0.166;2022-07-01T01:32:09;7.10;;;2.53;;
49318;SDS011;35818;44.498;0.166;2022-07-01T01:34:38;6.65;;;2.25;;
49318;SDS011;35818;44.498;0.166;2022-07-01T01:37:39;8.40;;;2.67;;
49318;SDS011;35818;44.498;0.166;2022-07-01T01:40:36;3.67;;;2.13;;
49318;SDS011;35818;44.498;0.166;2022-07-01T01:49:57;10.18;;;4.30;;
49318;SDS011;35818;44.498;0.166;2022-07-01T01:52:24;8.68;;;4.10;;
49318;SDS011;35818;44.498;0.166;2022-07-01T01:54:50;7.13;;;3.55;;
49318;SDS011;35818;44.498;0.166;2022-07-01T01:57:24;11.50;;;4.72;;
49318;SDS011;35818;44.498;0.166;2022-07-01T01:59:53;14.00;;;6.60;;
49318;SDS011;35818;44.498;0.166;2022-07-01T02:02:26;14.05;;;5.63;;
49318;SDS011;35818;44.498;0.166;2022-07-01T02:05:18;7.88;;;3.88;;
49318;SDS011;35818;44.498;0.166;2022-07-01T02:08:11;7.65;;;3.50;;
49318;SDS011;35818;44.498;0.166;2022-07-01T02:11:19;8.13;;;4.18;;
49318;SDS011;35818;44.498;0.166;2022-07-01T02:14:23;7.57;;;3.17;;
49318;SDS011;35818;44.498;0.166;2022-07-01T02:17:37;8.43;;;3.35;;
49318;SDS011;35818;44.498;0.166;2022-07-01T02:20:22;5.95;;;2.17;;
49318;SDS011;35818;44.498;0.166;2022-07-01T02:22:51;6.72;;;2.83;;
49318;SDS011;35818;44.498;0.166;2022-07-01T02:25:38;10.88;;;2.55;;
49318;SDS011;35818;44.498;0.166;2022-07-01T02:31:19;6.78;;;2.47;;
49318;SDS011;35818;44.498;0.166;2022-07-01T02:33:53;7.63;;;2.45;;
49318;SDS011;35818;44.498;0.166;2022-07-01T02:37:09;6.00;;;2.20;;
49318;SDS011;35818;44.498;0.166;2022-07-01T02:40:00;6.07;;;2.38;;
49318;SDS011;35818;44.498;0.166;2022-07-01T02:43:15;5.22;;;2.33;;
49318;SDS011;35818;44.498;0.166;2022-07-01T02:46:12;4.32;;;2.28;;
49318;SDS011;35818;44.498;0.166;2022-07-01T02:54:50;7.13;;;1.98;;
49318;SDS011;35818;44.498;0.166;2022-07-01T02:57:19;4.20;;;2.30;;
49318;SDS011;35818;44.498;0.166;2022-07-01T03:00:11;5.78;;;2.22;;
49318;SDS011;35818;44.498;0.166;2022-07-01T03:03:09;9.30;;;2.53;;
49318;SDS011;35818;44.498;0.166;2022-07-01T03:05:46;7.53;;;2.60;;
49318;SDS011;35818;44.498;0.166;2022-07-01T03:08:43;5.22;;;2.25;;
49318;SDS011;35818;44.498;0.166;2022-07-01T03:11:35;4.65;;;2.47;;
49318;SDS011;35818;44.498;0.166;2022-07-01T03:14:19;5.68;;;2.35;;
49318;SDS011;35818;44.498;0.166;2022-07-01T03:16:48;9.48;;;2.90;;
49318;SDS011;35818;44.498;0.166;2022-07-01T03:19:15;4.80;;;2.30;;
49318;SDS011;35818;44.498;0.166;2022-07-01T03:22:23;9.30;;;2.75;;
49318;SDS011;35818;44.498;0.166;2022-07-01T03:25:00;19.52;;;2.75;;
49318;SDS011;35818;44.498;0.166;2022-07-01T03:27:53;3.83;;;2.15;;
49318;SDS011;35818;44.498;0.166;2022-07-01T03:44:25;8.85;;;2.05;;
49318;SDS011;35818;44.498;0.166;2022-07-01T03:46:57;4.10;;;2.13;;
49318;SDS011;35818;44.498;0.166;2022-07-01T03:49:24;4.28;;;1.77;;
49318;SDS011;35818;44.498;0.166;2022-07-01T03:51:56;4.25;;;2.10;;
49318;SDS011;35818;44.498;0.166;2022-07-01T04:14:08;3.22;;;2.30;;
49318;SDS011;35818;44.498;0.166;2022-07-01T04:16:35;3.08;;;1.88;;
49318;SDS011;35818;44.498;0.166;2022-07-01T04:19:01;7.65;;;2.20;;
49318;SDS011;35818;44.498;0.166;2022-07-01T04:21:27;7.00;;;2.88;;
49318;SDS011;35818;44.498;0.166;2022-07-01T04:24:11;5.07;;;2.05;;
49318;SDS011;35818;44.498;0.166;2022-07-01T04:26:38;5.95;;;2.35;;
49318;SDS011;35818;44.498;0.166;2022-07-01T04:29:06;14.40;;;2.78;;
49318;SDS011;35818;44.498;0.166;2022-07-01T04:31:47;16.67;;;2.78;;
49318;SDS011;35818;44.498;0.166;2022-07-01T04:34:28;6.68;;;2.55;;
49318;SDS011;35818;44.498;0.166;2022-07-01T04:37:08;5.07;;;2.17;;
49318;SDS011;35818;44.498;0.166;2022-07-01T04:55:41;12.85;;;2.05;;
49318;SDS011;35818;44.498;0.166;2022-07-01T04:58:06;7.55;;;2.55;;
49318;SDS011;35818;44.498;0.166;2022-07-01T05:00:33;13.80;;;2.55;;
49318;SDS011;35818;44.498;0.166;2022-07-01T05:02:59;13.27;;;1.67;;
49318;SDS011;35818;44.498;0.166;2022-07-01T05:55:40;3.10;;;1.80;;
49318;SDS011;35818;44.498;0.166;2022-07-01T05:58:11;2.00;;;1.50;;
49318;SDS011;35818;44.498;0.166;2022-07-01T06:00:41;5.28;;;1.90;;
49318;SDS011;35818;44.498;0.166;2022-07-01T06:03:11;2.22;;;1.35;;
49318;SDS011;35818;44.498;0.166;2022-07-01T06:05:42;3.33;;;1.20;;
49318;SDS011;35818;44.498;0.166;2022-07-01T06:08:14;2.47;;;1.40;;
49318;SDS011;35818;44.498;0.166;2022-07-01T06:10:50;1.47;;;1.10;;
49318;SDS011;35818;44.498;0.166;2022-07-01T06:13:16;3.53;;;2.05;;
49318;SDS011;35818;44.498;0.166;2022-07-01T06:15:43;2.78;;;1.70;;
49318;SDS011;35818;44.498;0.166;2022-07-01T06:26:13;15.52;;;1.95;;
49318;SDS011;35818;44.498;0.166;2022-07-01T06:28:41;5.82;;;1.20;;
49318;SDS011;35818;44.498;0.166;2022-07-01T06:31:36;1.70;;;1.02;;
49318;SDS011;35818;44.498;0.166;2022-07-01T06:34:04;1.67;;;0.85;;
49318;SDS011;35818;44.498;0.166;2022-07-01T06:36:33;2.65;;;1.60;;
49318;SDS011;35818;44.498;0.166;2022-07-01T06:39:14;1.92;;;1.20;;
49318;SDS011;35818;44.498;0.166;2022-07-01T06:42:27;4.40;;;1.50;;
49318;SDS011;35818;44.498;0.166;2022-07-01T06:49:32;2.70;;;1.65;;
49318;SDS011;35818;44.498;0.166;2022-07-01T06:53:17;3.50;;;1.80;;
49318;SDS011;35818;44.498;0.166;2022-07-01T06:56:59;2.90;;;1.80;;
49318;SDS011;35818;44.498;0.166;2022-07-01T07:04:16;5.97;;;1.80;;
49318;SDS011;35818;44.498;0.166;2022-07-01T07:25:00;2.50;;;1.75;;
49318;SDS011;35818;44.498;0.166;2022-07-01T07:28:32;1.80;;;1.17;;
49318;SDS011;35818;44.498;0.166;2022-07-01T07:34:38;3.90;;;2.33;;
49318;SDS011;35818;44.498;0.166;2022-07-01T07:37:11;4.68;;;2.80;;
49318;SDS011;35818;44.498;0.166;2022-07-01T07:39:39;4.13;;;2.15;;
49318;SDS011;35818;44.498;0.166;2022-07-01T07:43:24;4.80;;;2.17;;
49318;SDS011;35818;44.498;0.166;2022-07-01T07:46:54;9.43;;;2.88;;
49318;SDS011;35818;44.498;0.166;2022-07-01T07:50:26;6.57;;;2.00;;
49318;SDS011;35818;44.498;0.166;2022-07-01T07:56:51;6.57;;;1.90;;
49318;SDS011;35818;44.498;0.166;2022-07-01T08:00:00;4.65;;;1.85;;
49318;SDS011;35818;44.498;0.166;2022-07-01T08:03:25;2.90;;;1.80;;
49318;SDS011;35818;44.498;0.166;2022-07-01T08:06:57;4.13;;;2.10;;
49318;SDS011;35818;44.498;0.166;2022-07-01T08:09:25;3.45;;;2.70;;
49318;SDS011;35818;44.498;0.166;2022-07-01T08:12:24;5.68;;;2.75;;
49318;SDS011;35818;44.498;0.166;2022-07-01T08:15:07;4.88;;;3.30;;
49318;SDS011;35818;44.498;0.166;2022-07-01T08:18:38;10.68;;;4.47;;
49318;SDS011;35818;44.498;0.166;2022-07-01T08:21:38;11.35;;;3.67;;
49318;SDS011;35818;44.498;0.166;2022-07-01T08:24:03;6.22;;;3.70;;
49318;SDS011;35818;44.498;0.166;2022-07-01T08:26:30;4.68;;;2.83;;
49318;SDS011;35818;44.498;0.166;2022-07-01T08:28:55;5.47;;;2.85;;
49318;SDS011;35818;44.498;0.166;2022-07-01T08:31:30;7.55;;;2.88;;
49318;SDS011;35818;44.498;0.166;2022-07-01T08:34:58;4.03;;;2.15;;
49318;SDS011;35818;44.498;0.166;2022-07-01T08:38:20;4.30;;;2.00;;
49318;SDS011;35818;44.498;0.166;2022-07-01T08:41:35;3.72;;;2.03;;
49318;SDS011;35818;44.498;0.166;2022-07-01T08:44:02;5.93;;;2.25;;
49318;SDS011;35818;44.498;0.166;2022-07-01T08:47:13;4.60;;;1.83;;
49318;SDS011;35818;44.498;0.166;2022-07-01T08:50:45;2.33;;;1.52;;
49318;SDS011;35818;44.498;0.166;2022-07-01T08:53:12;3.58;;;2.05;;
49318;SDS011;35818;44.498;0.166;2022-07-01T08:55:38;2.75;;;1.90;;
49318;SDS011;35818;44.498;0.166;2022-07-01T08:58:24;7.32;;;2.60;;
49318;SDS011;35818;44.498;0.166;2022-07-01T09:01:13;3.53;;;1.50;;
49318;SDS011;35818;44.498;0.166;2022-07-01T09:04:30;2.92;;;1.38;;
49318;SDS011;35818;44.498;0.166;2022-07-01T09:07:17;4.47;;;1.70;;
49318;SDS011;35818;44.498;0.166;2022-07-01T09:13:12;2.33;;;0.85;;
49318;SDS011;35818;44.498;0.166;2022-07-01T09:15:41;3.35;;;1.20;;
49318;SDS011;35818;44.498;0.166;2022-07-01T09:18:12;6.15;;;1.40;;
49318;SDS011;35818;44.498;0.166;2022-07-01T09:21:14;1.58;;;1.10;;
49318;SDS011;35818;44.498;0.166;2022-07-01T09:23:40;2.13;;;1.20;;
49318;SDS011;35818;44.498;0.166;2022-07-01T09:26:06;1.58;;;0.88;;
49318;SDS011;35818;44.498;0.166;2022-07-01T09:28:32;2.00;;;0.95;;
49318;SDS011;35818;44.498;0.166;2022-07-01T09:30:58;2.25;;;1.40;;
49318;SDS011;35818;44.498;0.166;2022-07-01T09:33:25;3.72;;;1.80;;
49318;SDS011;35818;44.498;0.166;2022-07-01T09:35:52;6.32;;;1.83;;
49318;SDS011;35818;44.498;0.166;2022-07-01T09:38:19;4.43;;;1.10;;
49318;SDS011;35818;44.498;0.166;2022-07-01T09:40:54;2.63;;;1.48;;
49318;SDS011;35818;44.498;0.166;2022-07-01T09:43:32;4.72;;;1.52;;
49318;SDS011;35818;44.498;0.166;2022-07-01T09:46:09;4.03;;;1.85;;
49318;SDS011;35818;44.498;0.166;2022-07-01T09:51:02;3.60;;;1.33;;
49318;SDS011;35818;44.498;0.166;2022-07-01T09:53:29;1.95;;;1.25;;
49318;SDS011;35818;44.498;0.166;2022-07-01T09:55:55;2.25;;;1.00;;
49318;SDS011;35818;44.498;0.166;2022-07-01T09:58:21;3.47;;;1.00;;
49318;SDS011;35818;44.498;0.166;2022-07-01T10:00:47;1.58;;;0.88;;
49318;SDS011;35818;44.498;0.166;2022-07-01T10:03:14;4.63;;;1.30;;
49318;SDS011;35818;44.498;0.166;2022-07-01T10:05:56;1.42;;;0.68;;
49318;SDS011;35818;44.498;0.166;2022-07-01T10:14:15;2.28;;;1.08;;
49318;SDS011;35818;44.498;0.166;2022-07-01T10:16:45;2.72;;;1.40;;
49318;SDS011;35818;44.498;0.166;2022-07-01T10:21:45;2.80;;;1.20;;
49318;SDS011;35818;44.498;0.166;2022-07-01T10:24:15;10.98;;;1.95;;
49318;SDS011;35818;44.498;0.166;2022-07-01T10:26:42;3.65;;;0.82;;
49318;SDS011;35818;44.498;0.166;2022-07-01T10:29:52;4.57;;;0.80;;
49318;SDS011;35818;44.498;0.166;2022-07-01T10:32:07;2.35;;;0.60;;
49318;SDS011;35818;44.498;0.166;2022-07-01T10:34:41;5.15;;;1.20;;
49318;SDS011;35818;44.498;0.166;2022-07-01T10:37:08;1.88;;;0.70;;
49318;SDS011;35818;44.498;0.166;2022-07-01T10:42:21;2.50;;;0.55;;
49318;SDS011;35818;44.498;0.166;2022-07-01T10:47:27;1.20;;;0.70;;
49318;SDS011;35818;44.498;0.166;2022-07-01T10:49:54;1.83;;;0.80;;
49318;SDS011;35818;44.498;0.166;2022-07-01T10:52:22;3.20;;;0.90;;
49318;SDS011;35818;44.498;0.166;2022-07-01T10:54:53;1.58;;;0.75;;
49318;SDS011;35818;44.498;0.166;2022-07-01T10:57:22;2.33;;;0.77;;
49318;SDS011;35818;44.498;0.166;2022-07-01T11:02:31;3.42;;;1.05;;
49318;SDS011;35818;44.498;0.166;2022-07-01T11:04:59;3.70;;;0.82;;
49318;SDS011;35818;44.498;0.166;2022-07-01T11:07:29;3.40;;;1.23;;
49318;SDS011;35818;44.498;0.166;2022-07-01T11:09:57;2.03;;;1.02;;
49318;SDS011;35818;44.498;0.166;2022-07-01T11:12:24;1.83;;;0.55;;
49318;SDS011;35818;44.498;0.166;2022-07-01T11:14:50;3.60;;;1.30;;
49318;SDS011;35818;44.498;0.166;2022-07-01T11:17:17;2.00;;;0.90;;
49318;SDS011;35818;44.498;0.166;2022-07-01T11:19:49;4.43;;;1.10;;
49318;SDS011;35818;44.498;0.166;2022-07-01T11:22:18;1.67;;;0.77;;
49318;SDS011;35818;44.498;0.166;2022-07-01T11:24:45;1.05;;;0.40;;
49318;SDS011;35818;44.498;0.166;2022-07-01T11:27:16;0.82;;;0.30;;
49318;SDS011;35818;44.498;0.166;2022-07-01T11:29:42;2.65;;;0.40;;
49318;SDS011;35818;44.498;0.166;2022-07-01T11:32:07;3.35;;;0.50;;
49318;SDS011;35818;44.498;0.166;2022-07-01T11:34:34;1.25;;;0.50;;
49318;SDS011;35818;44.498;0.166;2022-07-01T11:37:08;0.90;;;0.63;;
49318;SDS011;35818;44.498;0.166;2022-07-01T11:40:09;2.45;;;0.40;;
49318;SDS011;35818;44.498;0.166;2022-07-01T11:42:37;2.92;;;0.70;;
49318;SDS011;35818;44.498;0.166;2022-07-01T11:45:04;0.80;;;0.52;;
49318;SDS011;35818;44.498;0.166;2022-07-01T11:47:30;0.77;;;0.30;;
49318;SDS011;35818;44.498;0.166;2022-07-01T11:49:56;0.90;;;0.40;;
49318;SDS011;35818;44.498;0.166;2022-07-01T11:52:23;0.65;;;0.40;;
49318;SDS011;35818;44.498;0.166;2022-07-01T11:54:54;1.27;;;0.47;;
49318;SDS011;35818;44.498;0.166;2022-07-01T11:57:23;3.03;;;0.80;;
49318;SDS011;35818;44.498;0.166;2022-07-01T11:59:52;2.38;;;0.55;;
49318;SDS011;35818;44.498;0.166;2022-07-01T12:02:21;4.28;;;0.77;;
49318;SDS011;35818;44.498;0.166;2022-07-01T12:04:48;1.40;;;0.65;;
49318;SDS011;35818;44.498;0.166;2022-07-01T12:07:15;1.88;;;0.60;;
49318;SDS011;35818;44.498;0.166;2022-07-01T12:09:43;5.65;;;0.93;;
49318;SDS011;35818;44.498;0.166;2022-07-01T12:12:18;0.93;;;0.40;;
49318;SDS011;35818;44.498;0.166;2022-07-01T12:14:55;2.05;;;0.50;;
49318;SDS011;35818;44.498;0.166;2022-07-01T12:17:25;1.60;;;0.80;;
49318;SDS011;35818;44.498;0.166;2022-07-01T12:19:56;1.60;;;0.47;;
49318;SDS011;35818;44.498;0.166;2022-07-01T12:22:23;1.65;;;0.50;;
49318;SDS011;35818;44.498;0.166;2022-07-01T12:27:42;1.00;;;0.22;;
49318;SDS011;35818;44.498;0.166;2022-07-01T12:30:09;0.88;;;0.20;;
49318;SDS011;35818;44.498;0.166;2022-07-01T12:32:38;4.88;;;0.90;;
49318;SDS011;35818;44.498;0.166;2022-07-01T12:35:05;1.00;;;0.45;;
49318;SDS011;35818;44.498;0.166;2022-07-01T12:37:56;2.40;;;0.60;;
49318;SDS011;35818;44.498;0.166;2022-07-01T12:40:25;2.22;;;0.40;;
49318;SDS011;35818;44.498;0.166;2022-07-01T12:42:55;0.90;;;0.50;;
49318;SDS011;35818;44.498;0.166;2022-07-01T12:45:22;1.42;;;0.52;;
49318;SDS011;35818;44.498;0.166;2022-07-01T12:47:50;1.85;;;0.73;;
49318;SDS011;35818;44.498;0.166;2022-07-01T12:58:10;4.93;;;1.77;;
49318;SDS011;35818;44.498;0.166;2022-07-01T15:53:25;1.65;;;0.50;;
49318;SDS011;35818;44.498;0.166;2022-07-01T15:55:51;1.55;;;1.00;;
49318;SDS011;35818;44.498;0.166;2022-07-01T18:05:21;1.25;;;0.82;;
49318;SDS011;35818;44.498;0.166;2022-07-01T18:08:54;1.10;;;0.50;;
49318;SDS011;35818;44.498;0.166;2022-07-01T18:15:35;4.20;;;0.75;;
49318;SDS011;35818;44.498;0.166;2022-07-01T18:18:30;2.50;;;0.85;;
49318;SDS011;35818;44.498;0.166;2022-07-01T18:31:45;1.77;;;1.10;;
49318;SDS011;35818;44.498;0.166;2022-07-01T18:35:20;1.73;;;0.90;;
49318;SDS011;35818;44.498;0.166;2022-07-01T18:46:15;1.73;;;0.50;;
49318;SDS011;35818;44.498;0.166;2022-07-01T18:49:29;0.95;;;0.57;;
49318;SDS011;35818;44.498;0.166;2022-07-01T18:52:05;1.40;;;0.50;;
49318;SDS011;35818;44.498;0.166;2022-07-01T18:54:32;2.58;;;0.73;;
49318;SDS011;35818;44.498;0.166;2022-07-01T18:57:09;1.27;;;0.75;;
49318;SDS011;35818;44.498;0.166;2022-07-01T18:59:39;2.97;;;1.20;;
49318;SDS011;35818;44.498;0.166;2022-07-01T19:02:11;2.35;;;1.25;;
49318;SDS011;35818;44.498;0.166;2022-07-01T19:05:06;2.95;;;1.73;;
49318;SDS011;35818;44.498;0.166;2022-07-01T19:08:50;4.55;;;1.92;;
49318;SDS011;35818;44.498;0.166;2022-07-01T19:12:04;2.67;;;1.30;;
49318;SDS011;35818;44.498;0.166;2022-07-01T19:15:24;2.67;;;1.38;;
49318;SDS011;35818;44.498;0.166;2022-07-01T19:18:51;2.55;;;1.30;;
49318;SDS011;35818;44.498;0.166;2022-07-01T19:22:18;2.75;;;1.10;;
49318;SDS011;35818;44.498;0.166;2022-07-01T19:25:20;3.90;;;0.90;;
49318;SDS011;35818;44.498;0.166;2022-07-01T19:35:29;3.95;;;1.90;;
49318;SDS011;35818;44.498;0.166;2022-07-01T19:39:15;1.80;;;1.00;;
49318;SDS011;35818;44.498;0.166;2022-07-01T19:42:21;3.20;;;1.02;;
49318;SDS011;35818;44.498;0.166;2022-07-01T19:45:36;2.63;;;1.08;;
49318;SDS011;35818;44.498;0.166;2022-07-01T19:49:05;2.72;;;0.93;;
49318;SDS011;35818;44.498;0.166;2022-07-01T19:53:01;0.98;;;0.52;;
49318;SDS011;35818;44.498;0.166;2022-07-01T19:56:14;1.73;;;1.00;;
49318;SDS011;35818;44.498;0.166;2022-07-01T20:08:25;1.63;;;0.85;;
49318;SDS011;35818;44.498;0.166;2022-07-01T20:10:57;1.52;;;0.75;;
49318;SDS011;35818;44.498;0.166;2022-07-01T20:13:30;1.83;;;0.55;;
49318;SDS011;35818;44.498;0.166;2022-07-01T20:15:57;2.47;;;0.95;;
49318;SDS011;35818;44.498;0.166;2022-07-01T20:18:30;4.57;;;1.23;;
49318;SDS011;35818;44.498;0.166;2022-07-01T20:21:36;1.83;;;0.70;;
49318;SDS011;35818;44.498;0.166;2022-07-01T20:24:06;3.27;;;0.67;;
49318;SDS011;35818;44.498;0.166;2022-07-01T20:30:08;1.50;;;0.88;;
49318;SDS011;35818;44.498;0.166;2022-07-01T20:53:55;4.15;;;0.88;;
49318;SDS011;35818;44.498;0.166;2022-07-01T20:56:20;2.40;;;0.80;;
49318;SDS011;35818;44.498;0.166;2022-07-01T20:58:49;1.48;;;0.70;;
49318;SDS011;35818;44.498;0.166;2022-07-01T21:01:40;1.80;;;0.57;;
49318;SDS011;35818;44.498;0.166;2022-07-01T21:04:09;0.47;;;0.30;;
49318;SDS011;35818;44.498;0.166;2022-07-01T21:07:16;1.45;;;0.75;;
49318;SDS011;35818;44.498;0.166;2022-07-01T21:09:49;1.27;;;0.55;;
49318;SDS011;35818;44.498;0.166;2022-07-01T21:12:25;1.80;;;0.57;;
49318;SDS011;35818;44.498;0.166;2022-07-01T21:15:22;0.93;;;0.40;;
49318;SDS011;35818;44.498;0.166;2022-07-01T21:18:11;1.60;;;0.77;;
49318;SDS011;35818;44.498;0.166;2022-07-01T21:20:49;4.97;;;0.80;;
49318;SDS011;35818;44.498;0.166;2022-07-01T21:23:34;2.10;;;0.68;;
49318;SDS011;35818;44.498;0.166;2022-07-01T21:26:34;1.45;;;0.77;;
49318;SDS011;35818;44.498;0.166;2022-07-01T21:29:30;1.55;;;0.60;;
49318;SDS011;35818;44.498;0.166;2022-07-01T21:33:13;1.02;;;0.60;;
49318;SDS011;35818;44.498;0.166;2022-07-01T21:35:54;1.35;;;0.70;;
49318;SDS011;35818;44.498;0.166;2022-07-01T21:52:51;2.60;;;0.90;;
49318;SDS011;35818;44.498;0.166;2022-07-01T21:55:59;3.15;;;0.73;;
49318;SDS011;35818;44.498;0.166;2022-07-01T21:58:52;8.00;;;0.88;;
49318;SDS011;35818;44.498;0.166;2022-07-01T22:02:23;3.58;;;0.80;;
49318;SDS011;35818;44.498;0.166;2022-07-01T22:05:52;5.03;;;1.23;;
49318;SDS011;35818;44.498;0.166;2022-07-01T22:09:24;5.32;;;1.38;;
49318;SDS011;35818;44.498;0.166;2022-07-01T22:15:26;3.50;;;1.30;;
49318;SDS011;35818;44.498;0.166;2022-07-01T22:18:16;1.25;;;0.90;;
49318;SDS011;35818;44.498;0.166;2022-07-01T22:24:08;3.65;;;1.13;;
49318;SDS011;35818;44.498;0.166;2022-07-01T22:27:15;3.05;;;1.30;;
49318;SDS011;35818;44.498;0.166;2022-07-01T22:30:07;4.57;;;1.33;;
49318;SDS011;35818;44.498;0.166;2022-07-01T22:36:29;4.80;;;1.50;;
49318;SDS011;35818;44.498;0.166;2022-07-01T22:39:50;8.25;;;3.95;;
49318;SDS011;35818;44.498;0.166;2022-07-01T22:42:31;15.00;;;9.73;;
49318;SDS011;35818;44.498;0.166;2022-07-01T22:45:10;42.92;;;20.20;;
49318;SDS011;35818;44.498;0.166;2022-07-01T22:47:55;33.95;;;21.60;;
49318;SDS011;35818;44.498;0.166;2022-07-01T22:50:37;30.00;;;19.35;;
49318;SDS011;35818;44.498;0.166;2022-07-01T22:56:31;24.00;;;13.63;;
49318;SDS011;35818;44.498;0.166;2022-07-01T23:20:20;47.53;;;28.85;;
49318;SDS011;35818;44.498;0.166;2022-07-01T23:22:53;30.65;;;17.50;;
49318;SDS011;35818;44.498;0.166;2022-07-01T23:25:20;43.15;;;16.13;;
49318;SDS011;35818;44.498;0.166;2022-07-01T23:28:10;18.98;;;11.55;;
49318;SDS011;35818;44.498;0.166;2022-07-01T23:30:45;18.50;;;11.50;;
49318;SDS011;35818;44.498;0.166;2022-07-01T23:33:15;22.27;;;13.23;;
49318;SDS011;35818;44.498;0.166;2022-07-01T23:36:05;25.95;;;15.65;;
49318;SDS011;35818;44.498;0.166;2022-07-01T23:38:37;22.30;;;14.32;;
49318;SDS011;35818;44.498;0.166;2022-07-01T23:41:28;21.50;;;12.63;;
49318;SDS011;35818;44.498;0.166;2022-07-01T23:43:56;21.23;;;12.65;;
49318;SDS011;35818;44.498;0.166;2022-07-01T23:46:39;28.83;;;13.88;;
49318;SDS011;35818;44.498;0.166;2022-07-01T23:49:17;24.38;;;13.70;;
49318;SDS011;35818;44.498;0.166;2022-07-01T23:51:50;39.17;;;14.07;;
49318;SDS011;35818;44.498;0.166;2022-07-01T23:54:23;16.73;;;9.73;;
49318;SDS011;35818;44.498;0.166;2022-07-01T23:56:52;22.77;;;12.40;;
49318;SDS011;35818;44.498;0.166;2022-07-01T23:59:18;16.83;;;9.63;;
